createdAt,value
2017-11-28T00:00:12.536Z,82.18
2017-11-28T00:00:53.175Z,82.18
2017-11-28T00:01:33.650Z,82.37
2017-11-28T00:02:14.198Z,82.18
2017-11-28T00:02:54.776Z,82.56
2017-11-28T00:03:35.333Z,82.27
2017-11-28T00:04:15.912Z,82.18
2017-11-28T00:04:56.477Z,81.79
2017-11-28T00:05:37.070Z,81.79
2017-11-28T00:06:17.651Z,81.79
2017-11-28T00:06:58.167Z,82.37
2017-11-28T00:07:38.683Z,82.65
2017-11-28T00:08:19.362Z,81.89
2017-11-28T00:08:59.868Z,82.65
2017-11-28T00:09:43.558Z,82.27
2017-11-28T00:10:24.172Z,82.56
2017-11-28T00:11:04.728Z,82.08
2017-11-28T00:11:45.256Z,81.98
2017-11-28T00:12:25.799Z,82.08
2017-11-28T00:13:06.318Z,82.37
2017-11-28T00:13:46.924Z,81.85
2017-11-28T00:14:27.418Z,82.61
2017-11-28T00:15:12.269Z,82.14
2017-11-28T00:15:51.981Z,82.32
2017-11-28T00:16:32.556Z,83.13
2017-11-28T00:17:13.082Z,82.37
2017-11-28T00:17:53.627Z,82.56
2017-11-28T00:18:34.166Z,82.56
2017-11-28T00:19:16.560Z,82.18
2017-11-28T00:19:57.107Z,81.79
2017-11-28T00:20:37.631Z,82.27
2017-11-28T00:21:19.262Z,82.18
2017-11-28T00:21:59.787Z,82.56
2017-11-28T00:22:40.304Z,81.79
2017-11-28T00:23:20.874Z,81.41
2017-11-28T00:24:01.434Z,81.98
2017-11-28T00:24:41.964Z,81.98
2017-11-28T00:25:22.527Z,81.98
2017-11-28T00:26:03.129Z,82.56
2017-11-28T00:26:43.686Z,81.89
2017-11-28T00:27:24.174Z,81.13
2017-11-28T00:28:04.802Z,82.08
2017-11-28T00:28:45.296Z,81.79
2017-11-28T00:29:25.859Z,82.08
2017-11-28T00:30:06.384Z,81.32
2017-11-28T00:30:46.933Z,81.41
2017-11-28T00:31:27.477Z,81.7
2017-11-28T00:32:08.069Z,81.23
2017-11-28T00:32:49.286Z,82.08
2017-11-28T00:33:29.777Z,81.51
2017-11-28T00:34:10.292Z,81.98
2017-11-28T00:34:50.864Z,81.89
2017-11-28T00:35:31.444Z,81.79
2017-11-28T00:36:12.007Z,81.79
2017-11-28T00:36:52.538Z,81.98
2017-11-28T00:37:33.152Z,81.28
2017-11-28T00:38:16.803Z,82.8
2017-11-28T00:38:57.365Z,82.9
2017-11-28T00:39:37.939Z,82.75
2017-11-28T00:40:18.499Z,81.85
2017-11-28T00:40:59.035Z,82.23
2017-11-28T00:41:39.602Z,82.32
2017-11-28T00:42:20.208Z,82.51
2017-11-28T00:43:04.077Z,83.09
2017-11-28T00:43:44.578Z,82.99
2017-11-28T00:44:25.049Z,83.18
2017-11-28T00:45:05.667Z,83.28
2017-11-28T00:45:46.233Z,83.75
2017-11-28T00:46:26.779Z,83.94
2017-11-28T00:47:07.286Z,83.94
2017-11-28T00:47:47.946Z,83.75
2017-11-28T00:48:31.763Z,83.85
2017-11-28T00:49:12.265Z,83.85
2017-11-28T00:49:52.754Z,83.94
2017-11-28T00:50:33.294Z,83.75
2017-11-28T00:51:13.858Z,83.75
2017-11-28T00:51:54.487Z,83.94
2017-11-28T00:52:35.061Z,83.75
2017-11-28T00:53:15.614Z,83.75
2017-11-28T00:53:56.164Z,84.42
2017-11-28T00:54:36.726Z,84.8
2017-11-28T00:55:17.325Z,85.08
2017-11-28T00:55:57.790Z,84.8
2017-11-28T00:56:38.360Z,85.37
2017-11-28T00:57:18.891Z,85.66
2017-11-28T00:58:00.182Z,85.47
2017-11-28T00:58:40.721Z,85.66
2017-11-28T00:59:21.301Z,85.75
2017-11-28T01:00:01.824Z,84.8
2017-11-28T01:00:42.350Z,85.14
2017-11-28T01:01:22.961Z,85.42
2017-11-28T01:02:03.467Z,85.61
2017-11-28T01:02:44.025Z,85.42
2017-11-28T01:03:24.570Z,86.09
2017-11-28T01:04:08.399Z,85.24
2017-11-28T01:04:49.081Z,86.18
2017-11-28T01:05:29.526Z,86.57
2017-11-28T01:06:10.167Z,86.57
2017-11-28T01:06:50.735Z,86.38
2017-11-28T01:07:31.232Z,86.38
2017-11-28T01:08:15.143Z,86.57
2017-11-28T01:08:55.702Z,86.38
2017-11-28T01:09:36.269Z,86.47
2017-11-28T01:10:16.753Z,87.04
2017-11-28T01:10:57.274Z,86.94
2017-11-28T01:11:38.207Z,86.94
2017-11-28T01:12:18.787Z,86.85
2017-11-28T01:12:59.329Z,87.04
2017-11-28T01:13:42.295Z,87.04
2017-11-28T01:14:22.888Z,86.94
2017-11-28T01:15:03.415Z,87.04
2017-11-28T01:15:43.977Z,87.04
2017-11-28T01:16:24.509Z,87.71
2017-11-28T01:17:05.123Z,87.32
2017-11-28T01:17:45.669Z,87.23
2017-11-28T01:18:26.276Z,87.13
2017-11-28T01:19:06.827Z,87.13
2017-11-28T01:19:47.414Z,86.94
2017-11-28T01:20:27.912Z,87.23
2017-11-28T01:21:08.510Z,87.42
2017-11-28T01:21:48.993Z,87.42
2017-11-28T01:22:29.558Z,87.04
2017-11-28T01:23:10.065Z,87.32
2017-11-28T01:23:50.635Z,87.52
2017-11-28T01:24:31.155Z,87.9
2017-11-28T01:25:11.753Z,87.9
2017-11-28T01:25:52.241Z,87.42
2017-11-28T01:26:33.282Z,87.42
2017-11-28T01:27:13.319Z,87.71
2017-11-28T01:27:53.902Z,87.23
2017-11-28T01:28:37.784Z,87.04
2017-11-28T01:29:18.327Z,87.8
2017-11-28T01:29:58.946Z,87.99
2017-11-28T01:30:39.438Z,87.42
2017-11-28T01:31:19.976Z,87.71
2017-11-28T01:32:00.544Z,87.23
2017-11-28T01:32:44.552Z,87.71
2017-11-28T01:33:25.059Z,87.32
2017-11-28T01:34:05.590Z,87.42
2017-11-28T01:34:46.180Z,87.61
2017-11-28T01:35:26.717Z,87.52
2017-11-28T01:36:07.261Z,87.42
2017-11-28T01:36:51.816Z,87.66
2017-11-28T01:37:32.278Z,88.09
2017-11-28T01:38:12.907Z,87.66
2017-11-28T01:38:53.412Z,88.33
2017-11-28T01:39:33.971Z,88.23
2017-11-28T01:40:14.572Z,89
2017-11-28T01:40:55.077Z,89.28
2017-11-28T01:41:35.618Z,89.47
2017-11-28T01:42:16.190Z,89.47
2017-11-28T01:42:56.712Z,90.19
2017-11-28T01:43:37.274Z,90.56
2017-11-28T01:44:17.749Z,91.13
2017-11-28T01:44:58.341Z,91.8
2017-11-28T01:45:38.877Z,91.61
2017-11-28T01:46:19.419Z,91.8
2017-11-28T01:46:59.972Z,91.8
2017-11-28T01:47:40.508Z,92.37
2017-11-28T01:48:21.019Z,92.94
2017-11-28T01:49:01.586Z,92.46
2017-11-28T01:49:42.161Z,92.37
2017-11-28T01:50:26.231Z,92.46
2017-11-28T01:51:06.747Z,92.75
2017-11-28T01:51:47.275Z,92.75
2017-11-28T01:52:27.915Z,92.56
2017-11-28T01:53:08.413Z,92.94
2017-11-28T01:53:48.996Z,92.46
2017-11-28T01:54:32.983Z,91.52
2017-11-28T01:55:13.525Z,91.89
2017-11-28T01:55:54.084Z,92.08
2017-11-28T01:56:34.634Z,92.18
2017-11-28T01:57:15.185Z,92.75
2017-11-28T01:57:55.719Z,92.75
2017-11-28T01:58:36.278Z,92.37
2017-11-28T01:59:16.837Z,92.03
2017-11-28T02:00:00.147Z,91.66
2017-11-28T02:00:40.625Z,91.28
2017-11-28T02:01:21.233Z,91.08
2017-11-28T02:02:01.740Z,90.52
2017-11-28T02:02:42.352Z,90.42
2017-11-28T02:03:22.860Z,90.99
2017-11-28T02:04:03.360Z,89.94
2017-11-28T02:04:43.938Z,90.04
2017-11-28T02:05:24.531Z,89.94
2017-11-28T02:06:05.054Z,90.04
2017-11-28T02:06:45.620Z,90.04
2017-11-28T02:07:26.115Z,89.7
2017-11-28T02:08:06.642Z,89.14
2017-11-28T02:08:47.251Z,89
2017-11-28T02:09:27.808Z,88.85
2017-11-28T02:10:08.309Z,87.8
2017-11-28T02:10:48.886Z,88.09
2017-11-28T02:11:29.377Z,88.09
2017-11-28T02:12:09.919Z,88.28
2017-11-28T02:12:50.488Z,88.09
2017-11-28T02:13:31.083Z,87.99
2017-11-28T02:14:11.659Z,87.04
2017-11-28T02:14:52.244Z,87.32
2017-11-28T02:15:36.815Z,87.42
2017-11-28T02:16:16.893Z,87.23
2017-11-28T02:16:57.425Z,86.94
2017-11-28T02:17:37.937Z,87.13
2017-11-28T02:18:18.503Z,87.42
2017-11-28T02:18:59.047Z,87.04
2017-11-28T02:19:42.892Z,87.13
2017-11-28T02:20:23.438Z,87.71
2017-11-28T02:21:04.076Z,87.04
2017-11-28T02:21:44.594Z,86.85
2017-11-28T02:22:25.143Z,87.04
2017-11-28T02:23:05.654Z,87.04
2017-11-28T02:23:46.246Z,86.94
2017-11-28T02:24:26.828Z,86.47
2017-11-28T02:25:10.722Z,86.47
2017-11-28T02:25:51.314Z,87.13
2017-11-28T02:26:31.862Z,87.13
2017-11-28T02:27:12.442Z,86.76
2017-11-28T02:27:52.948Z,87.04
2017-11-28T02:28:33.512Z,86.18
2017-11-28T02:29:14.039Z,85.42
2017-11-28T02:29:54.618Z,85.9
2017-11-28T02:30:35.110Z,86.32
2017-11-28T02:31:15.734Z,85.42
2017-11-28T02:31:56.245Z,85.42
2017-11-28T02:32:36.819Z,84.95
2017-11-28T02:33:17.364Z,85.04
2017-11-28T02:36:11.016Z,85.24
2017-11-28T02:36:51.285Z,85.42
2017-11-28T02:37:31.813Z,85.33
2017-11-28T02:38:12.408Z,85.66
2017-11-28T02:38:52.980Z,85.37
2017-11-28T02:39:33.476Z,85.47
2017-11-28T02:40:16.993Z,84.85
2017-11-28T02:40:57.566Z,85.04
2017-11-28T02:41:38.090Z,84.85
2017-11-28T02:42:18.705Z,84.89
2017-11-28T02:42:59.263Z,85.04
2017-11-28T02:43:39.970Z,85.33
2017-11-28T02:44:20.498Z,85.33
2017-11-28T02:45:01.020Z,85.47
2017-11-28T02:45:41.635Z,85.75
2017-11-28T02:46:22.149Z,84.8
2017-11-28T02:47:02.681Z,84.61
2017-11-28T02:47:43.258Z,84.8
2017-11-28T02:48:23.802Z,84.8
2017-11-28T02:49:04.326Z,84.52
2017-11-28T02:49:44.755Z,84.42
2017-11-28T02:50:25.365Z,84.7
2017-11-28T02:51:05.923Z,84.7
2017-11-28T02:51:46.472Z,84.47
2017-11-28T02:52:27.000Z,84.89
2017-11-28T02:53:07.625Z,83.9
2017-11-28T02:53:48.073Z,83.9
2017-11-28T02:54:28.690Z,84.85
2017-11-28T02:55:09.253Z,85.24
2017-11-28T02:55:49.788Z,84.85
2017-11-28T02:56:30.353Z,84.47
2017-11-28T02:57:14.216Z,84.76
2017-11-28T02:57:54.806Z,84
2017-11-28T02:58:35.370Z,84.76
2017-11-28T02:59:15.908Z,84.76
2017-11-28T02:59:56.461Z,84.56
2017-11-28T03:00:37.068Z,84.76
2017-11-28T03:01:17.603Z,84.85
2017-11-28T03:02:01.558Z,84.47
2017-11-28T03:02:42.193Z,84.76
2017-11-28T03:03:22.739Z,83.9
2017-11-28T03:04:03.306Z,84.47
2017-11-28T03:04:43.808Z,84.76
2017-11-28T03:05:24.386Z,84.95
2017-11-28T03:06:04.984Z,85.52
2017-11-28T03:06:45.508Z,84.95
2017-11-28T03:07:29.043Z,84.66
2017-11-28T03:08:09.603Z,84.47
2017-11-28T03:08:50.180Z,83.85
2017-11-28T03:09:30.731Z,83.85
2017-11-28T03:10:11.242Z,83.09
2017-11-28T03:10:51.853Z,83.75
2017-11-28T03:11:32.431Z,83.56
2017-11-28T03:12:12.993Z,83.75
2017-11-28T03:12:53.498Z,83.85
2017-11-28T03:13:34.064Z,83.28
2017-11-28T03:14:14.595Z,83.09
2017-11-28T03:14:55.192Z,84.13
2017-11-28T03:15:35.747Z,83.65
2017-11-28T03:16:16.332Z,84
2017-11-28T03:16:56.883Z,84
2017-11-28T03:17:37.479Z,83.33
2017-11-28T03:18:17.927Z,84.09
2017-11-28T03:18:58.565Z,83.75
2017-11-28T03:19:39.066Z,83.75
2017-11-28T03:20:19.647Z,84.13
2017-11-28T03:21:00.280Z,82.95
2017-11-28T03:21:40.752Z,83.75
2017-11-28T03:22:21.290Z,83.65
2017-11-28T03:23:01.879Z,83.85
2017-11-28T03:23:42.394Z,83.47
2017-11-28T03:24:22.959Z,83.37
2017-11-28T03:25:03.480Z,83.71
2017-11-28T03:25:44.035Z,83.14
2017-11-28T03:26:28.421Z,83.62
2017-11-28T03:27:08.979Z,83.52
2017-11-28T03:27:49.534Z,83.71
2017-11-28T03:28:30.159Z,84
2017-11-28T03:29:13.880Z,83.42
2017-11-28T03:29:54.419Z,84.13
2017-11-28T03:30:35.037Z,83.94
2017-11-28T03:31:15.485Z,83.94
2017-11-28T03:31:56.093Z,83.18
2017-11-28T03:32:36.635Z,83.65
2017-11-28T03:33:17.126Z,83.18
2017-11-28T03:33:57.719Z,82.9
2017-11-28T03:34:41.445Z,82.99
2017-11-28T03:35:22.103Z,83.18
2017-11-28T03:36:02.540Z,83.75
2017-11-28T03:36:43.125Z,83.65
2017-11-28T03:37:23.674Z,83.56
2017-11-28T03:38:04.202Z,83.56
2017-11-28T03:38:44.803Z,83.18
2017-11-28T03:39:25.263Z,83.09
2017-11-28T03:40:05.835Z,82.32
2017-11-28T03:40:46.411Z,83.09
2017-11-28T03:41:26.908Z,83.75
2017-11-28T03:42:07.440Z,83.09
2017-11-28T03:42:47.956Z,82.76
2017-11-28T03:43:28.491Z,83.28
2017-11-28T03:44:09.039Z,83.75
2017-11-28T03:44:49.623Z,83.47
2017-11-28T03:45:30.240Z,83.56
2017-11-28T03:46:10.729Z,83.37
2017-11-28T03:46:51.307Z,82.42
2017-11-28T03:47:31.806Z,82.51
2017-11-28T03:48:12.417Z,82.51
2017-11-28T03:48:52.863Z,82.42
2017-11-28T03:49:36.570Z,82.04
2017-11-28T03:50:17.096Z,81.18
2017-11-28T03:50:57.714Z,82.42
2017-11-28T03:51:38.196Z,82.42
2017-11-28T03:52:18.731Z,81.95
2017-11-28T03:52:59.276Z,82.04
2017-11-28T03:53:43.289Z,81.76
2017-11-28T03:54:23.858Z,81.95
2017-11-28T03:55:04.419Z,81.95
2017-11-28T03:55:44.994Z,82.04
2017-11-28T03:56:25.598Z,81.76
2017-11-28T03:57:06.120Z,82.14
2017-11-28T03:57:49.470Z,81.95
2017-11-28T03:58:30.012Z,82.23
2017-11-28T03:59:10.619Z,81.76
2017-11-28T03:59:51.125Z,82.51
2017-11-28T04:00:31.649Z,82.14
2017-11-28T04:01:12.194Z,82.42
2017-11-28T04:01:52.741Z,82.14
2017-11-28T04:43:00.140Z,86.9
2017-11-28T04:43:40.511Z,86.61
2017-11-28T04:44:20.930Z,87.13
2017-11-28T04:45:01.304Z,86.61
2017-11-28T04:45:41.706Z,87.09
2017-11-28T04:46:22.135Z,87.19
2017-11-28T04:47:02.523Z,86.99
2017-11-28T04:47:42.947Z,87.57
2017-11-28T04:48:23.574Z,87.19
2017-11-28T04:49:04.180Z,87.85
2017-11-28T04:49:44.431Z,87.47
2017-11-28T04:50:24.826Z,87.42
2017-11-28T04:51:05.281Z,86.85
2017-11-28T04:51:45.696Z,87.99
2017-11-28T04:52:26.060Z,87.13
2017-11-28T04:53:06.486Z,86.57
2017-11-28T04:53:46.919Z,86.76
2017-11-28T04:54:27.358Z,86.57
2017-11-28T04:55:07.735Z,87.71
2017-11-28T04:55:48.471Z,86.85
2017-11-28T04:56:28.875Z,86.57
2017-11-28T04:57:11.699Z,85.52
2017-11-28T04:57:52.165Z,85.24
2017-11-28T04:58:32.615Z,86.09
2017-11-28T04:59:12.976Z,86.38
2017-11-28T04:59:53.845Z,86.47
2017-11-28T05:00:34.169Z,87.61
2017-11-28T05:01:15.453Z,87.13
2017-11-28T05:01:55.682Z,86.94
2017-11-28T05:02:36.125Z,87.42
2017-11-28T05:03:16.560Z,86.85
2017-11-28T05:03:56.973Z,87.71
2017-11-28T05:04:37.389Z,87.32
2017-11-28T05:05:17.813Z,87.61
2017-11-28T05:05:58.595Z,86.57
2017-11-28T05:06:39.327Z,86.94
2017-11-28T05:07:19.910Z,87.04
2017-11-28T05:08:00.383Z,87.23
2017-11-28T05:08:41.876Z,86.57
2017-11-28T05:09:22.966Z,87.42
2017-11-28T05:10:03.611Z,86.18
2017-11-28T05:10:44.596Z,85.14
2017-11-28T05:11:24.793Z,85.99
2017-11-28T05:12:05.861Z,86.09
2017-11-28T05:12:47.182Z,87.23
2017-11-28T05:13:27.673Z,87.52
2017-11-28T05:14:08.761Z,87.23
2017-11-28T05:14:49.417Z,86.09
2017-11-28T05:15:29.958Z,87.23
2017-11-28T05:16:10.540Z,87.13
2017-11-28T05:16:50.981Z,85.99
2017-11-28T05:17:31.372Z,85.99
2017-11-28T05:18:11.866Z,86.09
2017-11-28T05:18:52.194Z,86.57
2017-11-28T05:19:32.587Z,85.42
2017-11-28T05:20:12.970Z,85.61
2017-11-28T05:20:53.356Z,85.42
2017-11-28T05:21:33.799Z,86.28
2017-11-28T05:22:14.272Z,85.99
2017-11-28T05:22:54.598Z,86.76
2017-11-28T05:23:35.026Z,86.38
2017-11-28T05:24:16.282Z,85.8
2017-11-28T05:24:56.213Z,86.09
2017-11-28T05:25:36.990Z,85.24
2017-11-28T05:26:17.387Z,86.38
2017-11-28T05:26:58.086Z,85.42
2017-11-28T05:27:38.493Z,86.09
2017-11-28T05:28:19.107Z,86.38
2017-11-28T05:28:59.579Z,85.42
2017-11-28T05:29:39.889Z,86.28
2017-11-28T05:30:20.323Z,85.42
2017-11-28T05:31:00.689Z,85.42
2017-11-28T05:31:41.393Z,85.42
2017-11-28T05:32:22.544Z,85.04
2017-11-28T05:33:02.853Z,85.61
2017-11-28T05:33:43.332Z,85.24
2017-11-28T05:34:23.716Z,86.09
2017-11-28T05:35:04.100Z,86.38
2017-11-28T05:35:44.542Z,85.9
2017-11-28T05:36:25.012Z,87.23
2017-11-28T05:37:05.417Z,86.09
2017-11-28T05:37:45.814Z,86.18
2017-11-28T05:38:26.277Z,85.33
2017-11-28T05:39:06.802Z,84.56
2017-11-28T05:39:47.258Z,84.85
2017-11-28T05:40:27.601Z,86.09
2017-11-28T05:41:07.948Z,86.18
2017-11-28T05:41:48.590Z,85.61
2017-11-28T05:42:29.701Z,86.28
2017-11-28T05:43:09.757Z,85.52
2017-11-28T05:43:50.134Z,85.42
2017-11-28T05:44:30.565Z,85.14
2017-11-28T05:45:11.005Z,85.24
2017-11-28T05:45:51.390Z,85.99
2017-11-28T05:46:31.792Z,85.99
2017-11-28T05:47:12.213Z,86.09
2017-11-28T05:47:52.618Z,85.52
2017-11-28T05:48:33.614Z,86.47
2017-11-28T05:49:14.018Z,85.33
2017-11-28T05:49:54.525Z,84.85
2017-11-28T05:50:35.578Z,85.52
2017-11-28T05:52:24.842Z,85.33
2017-11-28T05:53:07.382Z,85.1
2017-11-28T05:53:47.934Z,84.81
2017-11-28T05:54:28.793Z,85.42
2017-11-28T05:55:09.203Z,85.66
2017-11-28T05:55:49.704Z,85.38
2017-11-28T05:56:30.130Z,86.71
2017-11-28T05:57:10.825Z,86.33
2017-11-28T05:57:51.278Z,86.43
2017-11-28T05:58:33.048Z,86.24
2017-11-28T05:59:12.650Z,86.14
2017-11-28T05:59:53.083Z,86.05
2017-11-28T06:00:33.480Z,86.52
2017-11-28T06:01:13.922Z,86.8
2017-11-28T06:01:54.388Z,86.9
2017-11-28T06:02:34.726Z,87.28
2017-11-28T06:03:15.161Z,86.14
2017-11-28T06:03:55.557Z,86.99
2017-11-28T06:04:35.944Z,86.43
2017-11-28T06:05:16.317Z,85.57
2017-11-28T06:05:56.757Z,86.52
2017-11-28T06:06:37.131Z,86.71
2017-11-28T06:07:17.531Z,86.9
2017-11-28T06:07:58.112Z,86.99
2017-11-28T06:08:39.219Z,86.71
2017-11-28T06:09:19.137Z,87.38
2017-11-28T06:09:59.552Z,87.38
2017-11-28T06:10:39.954Z,86.61
2017-11-28T06:11:20.387Z,86.14
2017-11-28T06:12:00.759Z,86.05
2017-11-28T06:12:41.172Z,86.14
2017-11-28T06:13:21.592Z,85.66
2017-11-28T06:14:02.006Z,85.38
2017-11-28T06:14:42.411Z,86.05
2017-11-28T06:15:22.791Z,85.47
2017-11-28T06:16:03.194Z,84.72
2017-11-28T06:16:43.661Z,85
2017-11-28T06:17:24.048Z,84.91
2017-11-28T06:18:04.444Z,85
2017-11-28T06:18:44.863Z,85.57
2017-11-28T06:19:25.247Z,85.57
2017-11-28T06:20:05.658Z,85.57
2017-11-28T06:20:46.071Z,85.86
2017-11-28T06:21:26.480Z,85.66
2017-11-28T06:22:07.102Z,85.47
2017-11-28T06:22:47.758Z,85.57
2017-11-28T06:23:28.014Z,85.47
2017-11-28T06:24:08.387Z,84.81
2017-11-28T06:24:48.764Z,84.62
2017-11-28T06:25:29.152Z,85.91
2017-11-28T06:26:09.526Z,86.47
2017-11-28T06:26:49.936Z,86.9
2017-11-28T06:27:30.381Z,86.76
2017-11-28T06:28:10.774Z,86.99
2017-11-28T06:28:51.178Z,86.61
2017-11-28T06:29:31.569Z,86.61
2017-11-28T06:30:11.978Z,86.38
2017-11-28T06:30:52.400Z,86.1
2017-11-28T06:31:32.795Z,86
2017-11-28T06:32:13.193Z,85.24
2017-11-28T06:32:53.574Z,85.53
2017-11-28T06:33:33.984Z,86
2017-11-28T06:34:14.398Z,85.91
2017-11-28T06:34:54.806Z,86.19
2017-11-28T06:35:35.228Z,86.29
2017-11-28T06:37:24.112Z,87.14
2017-11-28T06:38:06.591Z,86.57
2017-11-28T06:38:46.974Z,86.38
2017-11-28T06:39:27.433Z,86.95
2017-11-28T06:40:07.801Z,86.47
2017-11-28T06:40:48.207Z,86.1
2017-11-28T06:41:28.600Z,86.57
2017-11-28T06:42:09.023Z,87.52
2017-11-28T06:42:49.404Z,86.57
2017-11-28T06:43:29.801Z,86.19
2017-11-28T06:44:10.217Z,86.38
2017-11-28T06:44:50.628Z,86.38
2017-11-28T06:45:31.017Z,86.86
2017-11-28T06:46:11.457Z,87.71
2017-11-28T06:46:51.874Z,87.14
2017-11-28T06:47:32.403Z,87.81
2017-11-28T06:48:12.825Z,87.34
2017-11-28T06:48:53.255Z,86.91
2017-11-28T06:49:35.106Z,87.14
2017-11-28T06:50:15.491Z,87.62
2017-11-28T06:50:56.005Z,86.95
2017-11-28T06:51:36.348Z,86.95
2017-11-28T06:52:16.856Z,87.24
2017-11-28T06:52:57.874Z,87.9
2017-11-28T06:53:38.407Z,87.71
2017-11-28T06:54:18.912Z,87.14
2017-11-28T06:54:59.541Z,87.05
2017-11-28T06:55:39.933Z,87.62
2017-11-28T06:56:21.293Z,87.81
2017-11-28T06:57:01.844Z,87.43
2017-11-28T06:57:42.204Z,87.62
2017-11-28T06:58:23.243Z,87.24
2017-11-28T06:59:03.778Z,87.14
2017-11-28T06:59:44.510Z,86.95
2017-11-28T07:00:25.797Z,86.67
2017-11-28T07:01:05.537Z,86.67
2017-11-28T07:01:46.802Z,86.1
2017-11-28T07:02:26.686Z,86
2017-11-28T07:03:08.104Z,86.29
2017-11-28T07:03:48.360Z,85.81
2017-11-28T07:04:28.499Z,86.86
2017-11-28T07:05:08.887Z,86.86
2017-11-28T07:05:49.527Z,87.24
2017-11-28T07:06:30.196Z,87.05
2017-11-28T07:07:10.825Z,86.76
2017-11-28T07:07:52.368Z,86.29
2017-11-28T07:08:32.596Z,86.19
2017-11-28T07:09:14.796Z,86.1
2017-11-28T07:09:55.296Z,86.95
2017-11-28T07:10:35.590Z,87.24
2017-11-28T07:11:16.926Z,87.43
2017-11-28T07:11:56.825Z,87.34
2017-11-28T07:12:37.823Z,86.29
2017-11-28T07:13:19.474Z,86.43
2017-11-28T07:13:59.354Z,86.63
2017-11-28T07:14:39.611Z,87.1
2017-11-28T07:15:20.447Z,87.38
2017-11-28T07:16:01.816Z,86.91
2017-11-28T07:16:41.688Z,86.82
2017-11-28T07:17:22.851Z,86.34
2017-11-28T07:18:03.866Z,87.01
2017-11-28T07:18:43.843Z,87.86
2017-11-28T07:19:24.663Z,87.01
2017-11-28T07:20:06.315Z,87.76
2017-11-28T07:20:46.826Z,88.34
2017-11-28T07:21:26.721Z,87.95
2017-11-28T07:22:07.586Z,87.38
2017-11-28T07:22:48.230Z,87.19
2017-11-28T07:23:29.153Z,87.62
2017-11-28T07:24:09.790Z,87.62
2017-11-28T07:24:50.147Z,87.57
2017-11-28T07:25:31.806Z,87.67
2017-11-28T07:26:11.726Z,87.1
2017-11-28T07:26:52.994Z,87.57
2017-11-28T07:27:33.323Z,87.19
2017-11-28T07:28:13.121Z,86.91
2017-11-28T07:28:53.592Z,86.24
2017-11-28T07:29:42.177Z,86.43
2017-11-28T07:30:21.281Z,86.63
2017-11-28T07:31:01.463Z,86.43
2017-11-28T07:31:42.149Z,86.53
2017-11-28T07:32:22.703Z,86.53
2017-11-28T07:33:07.139Z,85.96
2017-11-28T07:33:47.813Z,86.24
2017-11-28T07:34:28.730Z,86.43
2017-11-28T07:35:09.547Z,86.91
2017-11-28T07:35:49.867Z,87.29
2017-11-28T07:36:31.501Z,86.82
2017-11-28T07:37:11.339Z,87.1
2017-11-28T07:37:51.909Z,86.82
2017-11-28T07:38:38.195Z,87.76
2017-11-28T07:39:18.254Z,86.72
2017-11-28T07:40:01.335Z,86.91
2017-11-28T07:40:41.911Z,87.76
2017-11-28T07:41:22.757Z,88.15
2017-11-28T07:42:03.537Z,88.62
2017-11-28T07:42:44.172Z,88.62
2017-11-28T07:43:24.932Z,88.71
2017-11-28T07:44:05.884Z,87.34
2017-11-28T07:44:46.799Z,86.95
2017-11-28T07:45:27.878Z,87.34
2017-11-28T07:46:08.352Z,86.57
2017-11-28T07:46:52.325Z,85.43
2017-11-28T07:47:32.147Z,84.52
2017-11-28T07:48:13.444Z,84.62
2017-11-28T07:48:54.454Z,84.81
2017-11-28T07:49:34.776Z,83.71
2017-11-28T07:50:15.528Z,83.33
2017-11-28T07:50:56.899Z,82.28
2017-11-28T07:51:38.003Z,80.9
2017-11-28T07:52:17.625Z,80.52
2017-11-28T07:52:59.518Z,79.09
2017-11-28T07:53:40.341Z,78.46
2017-11-28T07:54:23.153Z,77.89
2017-11-28T07:55:03.955Z,76.65
2017-11-28T07:55:44.353Z,76.18
2017-11-28T07:56:26.370Z,75.7
2017-11-28T07:57:06.983Z,75.45
2017-11-28T07:57:47.698Z,74.88
2017-11-28T07:58:30.008Z,74.21
2017-11-28T07:59:11.982Z,73.93
2017-11-28T07:59:55.486Z,73.17
2017-11-28T08:00:36.598Z,73.45
2017-11-28T08:01:16.347Z,73.55
2017-11-28T08:01:57.349Z,73.07
2017-11-28T08:02:38.777Z,72.6
2017-11-28T08:03:21.392Z,73.11
2017-11-28T08:04:01.627Z,72.5
2017-11-28T08:04:42.077Z,72.72
2017-11-28T08:05:24.744Z,73.11
2017-11-28T08:06:07.787Z,72.34
2017-11-28T08:06:48.619Z,72.72
2017-11-28T08:07:29.266Z,72.16
2017-11-28T08:08:10.438Z,71.48
2017-11-28T08:08:54.199Z,71.72
2017-11-28T08:09:35.947Z,70.86
2017-11-28T08:10:17.261Z,70.38
2017-11-28T08:10:58.829Z,70
2017-11-28T08:11:38.421Z,70
2017-11-28T08:12:19.243Z,69.43
2017-11-28T08:12:59.471Z,69.81
2017-11-28T08:13:40.351Z,69.9
2017-11-28T08:14:21.324Z,69.43
2017-11-28T08:15:01.797Z,69.23
2017-11-28T08:15:42.414Z,69.65
2017-11-28T08:16:23.000Z,69.65
2017-11-28T08:17:03.765Z,68.98
2017-11-28T08:17:44.865Z,67.93
2017-11-28T08:18:24.977Z,67.27
2017-11-28T08:19:05.612Z,67.07
2017-11-28T08:19:46.618Z,66.44
2017-11-28T08:20:27.141Z,65.87
2017-11-28T08:21:08.982Z,65.77
2017-11-28T08:21:48.991Z,65.87
2017-11-28T08:22:30.390Z,66.06
2017-11-28T08:23:10.806Z,65.39
2017-11-28T08:23:51.335Z,65.2
2017-11-28T08:24:32.917Z,64.81
2017-11-28T08:25:13.336Z,65.39
2017-11-28T08:25:53.283Z,66.44
2017-11-28T08:26:33.774Z,65.87
2017-11-28T08:27:14.977Z,65.77
2017-11-28T08:27:56.322Z,65.2
2017-11-28T08:28:37.449Z,64.75
2017-11-28T08:29:17.514Z,63.67
2017-11-28T08:29:58.327Z,64.09
2017-11-28T08:30:38.986Z,64.28
2017-11-28T08:31:19.621Z,63.39
2017-11-28T08:32:00.098Z,64.47
2017-11-28T08:32:41.355Z,64.09
2017-11-28T08:33:21.445Z,64.09
2017-11-28T08:34:01.909Z,64.65
2017-11-28T08:34:42.395Z,63.32
2017-11-28T08:35:22.837Z,63.51
2017-11-28T08:36:03.212Z,63.16
2017-11-28T08:36:43.645Z,62.18
2017-11-28T08:37:24.058Z,62.65
2017-11-28T08:38:04.543Z,62.84
2017-11-28T08:38:44.897Z,62.65
2017-11-28T08:39:25.301Z,62.27
2017-11-28T08:40:05.749Z,62.75
2017-11-28T08:40:46.181Z,62.01
2017-11-28T08:41:26.600Z,62.11
2017-11-28T08:42:07.038Z,62.4
2017-11-28T08:42:47.488Z,62.27
2017-11-28T08:43:27.882Z,61.92
2017-11-28T08:44:08.305Z,62.3
2017-11-28T08:44:48.797Z,61.35
2017-11-28T08:45:29.216Z,61.35
2017-11-28T08:46:09.583Z,60.99
2017-11-28T08:46:50.009Z,61.09
2017-11-28T08:47:30.805Z,60.71
2017-11-28T08:48:11.225Z,60.52
2017-11-28T08:48:51.616Z,60.13
2017-11-28T08:49:32.168Z,59.47
2017-11-28T08:50:12.599Z,59.94
2017-11-28T08:50:53.179Z,59.66
2017-11-28T08:51:33.614Z,58.98
2017-11-28T08:52:14.080Z,59.56
2017-11-28T08:52:54.482Z,59.47
2017-11-28T08:53:34.926Z,59.37
2017-11-28T08:54:15.438Z,59.75
2017-11-28T08:54:55.955Z,60.13
2017-11-28T08:55:36.404Z,59.94
2017-11-28T08:56:16.869Z,59.47
2017-11-28T08:56:57.324Z,59.27
2017-11-28T08:57:37.828Z,59.08
2017-11-28T08:58:18.312Z,58.89
2017-11-28T08:58:58.727Z,59.47
2017-11-28T08:59:39.208Z,58.8
2017-11-28T09:00:19.633Z,59.18
2017-11-28T09:01:00.419Z,60.23
2017-11-28T09:01:40.950Z,60.04
2017-11-28T09:02:21.687Z,60.33
2017-11-28T09:03:02.169Z,60.04
2017-11-28T09:03:42.544Z,59.94
2017-11-28T09:04:23.114Z,59.75
2017-11-28T09:05:03.594Z,59.47
2017-11-28T09:05:43.964Z,59.56
2017-11-28T09:06:24.673Z,59.56
2017-11-28T09:07:05.160Z,58.89
2017-11-28T09:07:45.756Z,59.66
2017-11-28T09:08:27.268Z,59.37
2017-11-28T09:09:07.543Z,59.18
2017-11-28T09:09:48.234Z,58.7
2017-11-28T09:10:28.622Z,58.51
2017-11-28T09:11:09.030Z,58.89
2017-11-28T09:11:49.440Z,59.01
2017-11-28T09:12:29.967Z,58.54
2017-11-28T09:18:15.485Z,57.01
2017-11-28T09:18:57.116Z,56.91
2017-11-28T09:19:39.187Z,57.04
2017-11-28T09:20:24.103Z,56.62
2017-11-28T09:21:03.822Z,56.62
2017-11-28T09:21:44.830Z,57.1
2017-11-28T09:22:27.480Z,57.48
2017-11-28T09:23:14.434Z,57.2
2017-11-28T09:23:58.387Z,57.68
2017-11-28T09:24:41.100Z,57.68
2017-11-28T09:25:21.081Z,57.55
2017-11-28T09:26:09.680Z,57.65
2017-11-28T09:26:52.334Z,58.61
2017-11-28T09:27:33.856Z,59.2
2017-11-28T09:31:12.278Z,57.68
2017-11-28T09:31:53.462Z,57.2
2017-11-28T09:32:35.252Z,57.68
2017-11-28T09:33:15.638Z,58.83
2017-11-28T09:33:57.511Z,57.13
2017-11-28T09:34:40.863Z,58.56
2017-11-28T09:35:22.754Z,57.23
2017-11-28T09:36:04.073Z,57.51
2017-11-28T09:36:48.367Z,57.23
2017-11-28T09:37:29.524Z,56.37
2017-11-28T09:38:10.235Z,57.7
2017-11-28T09:38:50.898Z,56.46
2017-11-28T09:41:08.391Z,56.46
2017-11-28T09:41:54.538Z,56.37